Suez Canal Bridge — HODM — position and weather

sailwx.info

Track history (hours):
 
Tides and Currents Weather Stations Pressure Air Temp Water Temp Dewpoint Dewpoint Depression Visibility Wind Speed Wind Dir Waves Ship Positions

Suez Canal Bridge

Last reported at 2014-Dec-31 23:16 UTC. Time now 2015-Jan-29 18:22 UTC.
Position N 32°06' W 081°01'.
Warning: this ship's position is 28 days out of date.

Length 284.7 m; beam 40 m.

Type: Cargo ship. MMSI: 353704000.

Date/timePositionNaut miles runAvg speedWind from/ knotsBaromVisibWave heightAir tempDewpointWater temp
2014-Dec-31 23:16N 32°06' W 081°01'5 6.6
2014-Dec-31 22:33N 32°06' W 081°06'3 1.4
2014-Dec-31 20:28N 32°08' W 081°08'0 0.0
2014-Dec-31 16:21N 32°08' W 081°08'0 0.0
2014-Dec-31 13:28N 32°08' W 081°08'0 0.0
2014-Dec-31 04:33N 32°08' W 081°08'0 0.0
2014-Dec-30 22:20N 32°08' W 081°08'3 3.6
2014-Dec-30 21:31N 32°06' W 081°06'  
2014-Dec-28 00:05N 37°32' W 074°27'816.0
2014-Dec-27 23:33N 37°39' W 074°21'5115.6
2014-Dec-27 20:16N 38°27' W 073°60'1216.1
2014-Dec-27 19:32N 38°39' W 073°58'1616.1
2014-Dec-27 18:33N 38°55' W 073°57'1615.6
2014-Dec-27 17:33N 39°10' W 073°55'1614.6
2014-Dec-27 16:29N 39°26' W 073°54'1414.5
2014-Dec-27 15:33N 39°39' W 073°52'1514.6
2014-Dec-27 14:33N 39°54' W 073°51'1413.4
2014-Dec-27 13:32N 40°07' W 073°50'9 8.8
2014-Dec-27 12:34N 40°16' W 073°49'9 8.5
2014-Dec-27 11:34N 40°24' W 073°49'8 7.6
2014-Dec-27 10:33N 40°30' W 073°56'1212.1
2014-Dec-27 09:33N 40°39' W 074°07'3 2.5
2014-Dec-27 08:31N 40°41' W 074°09'0 0.0
2014-Dec-27 07:31N 40°41' W 074°09'0 0.0
2014-Dec-27 06:22N 40°41' W 074°09'0 0.0
2014-Dec-27 05:31N 40°41' W 074°09'0 0.0
2014-Dec-27 04:31N 40°41' W 074°09'0 0.0
2014-Dec-27 03:31N 40°41' W 074°09'0 0.0
2014-Dec-27 02:25N 40°41' W 074°09'0 0.0
2014-Dec-27 01:31N 40°41' W 074°09'0 0.0
2014-Dec-27 00:31N 40°41' W 074°09'0 0.0
2014-Dec-26 23:28N 40°41' W 074°09'0 0.0
2014-Dec-26 22:32N 40°41' W 074°09'0 0.0
2014-Dec-26 21:29N 40°41' W 074°09'0 0.0
2014-Dec-26 20:29N 40°41' W 074°09'0 0.0
2014-Dec-26 19:29N 40°41' W 074°09'0 0.0
2014-Dec-26 18:29N 40°41' W 074°09'0 0.0
2014-Dec-26 17:29N 40°41' W 074°09'0 0.0
2014-Dec-26 16:29N 40°41' W 074°09'0 0.0
2014-Dec-26 15:32N 40°41' W 074°09'0 0.0
2014-Dec-26 14:32N 40°41' W 074°09'0 0.0
2014-Dec-26 13:32N 40°41' W 074°09'0 0.0
2014-Dec-26 12:32N 40°41' W 074°09'0 0.0
2014-Dec-26 11:32N 40°41' W 074°09'0 0.0
2014-Dec-26 10:32N 40°41' W 074°09'0 0.0
2014-Dec-26 09:32N 40°41' W 074°09'0 0.0
2014-Dec-26 08:29N 40°41' W 074°09'0 0.0
2014-Dec-26 07:29N 40°41' W 074°09'0 0.0
2014-Dec-26 06:29N 40°41' W 074°09'0 0.0
2014-Dec-26 05:29N 40°41' W 074°09'0 0.0
2014-Dec-26 04:29N 40°41' W 074°09'0 0.0
2014-Dec-26 03:32N 40°41' W 074°09'0 0.0
2014-Dec-26 02:32N 40°41' W 074°09'0 0.0
2014-Dec-26 01:32N 40°41' W 074°09'0 0.0
2014-Dec-26 00:32N 40°41' W 074°09'0 0.0
2014-Dec-25 23:32N 40°41' W 074°09'0 0.0
2014-Dec-25 22:32N 40°41' W 074°09'0 0.0
2014-Dec-25 21:26N 40°41' W 074°09'0 0.0
2014-Dec-25 20:32N 40°41' W 074°09'0 0.0
2014-Dec-25 19:32N 40°41' W 074°09'0 0.0
2014-Dec-25 18:32N 40°41' W 074°09'0 0.0
2014-Dec-25 17:32N 40°41' W 074°09'0 0.0
2014-Dec-25 16:32N 40°41' W 074°09'0 0.0
2014-Dec-25 15:32N 40°41' W 074°09'0 0.0
2014-Dec-25 14:32N 40°41' W 074°09'0 0.0
2014-Dec-25 13:32N 40°41' W 074°09'0 0.0
2014-Dec-25 12:32N 40°41' W 074°09'0 0.0
2014-Dec-25 11:32N 40°41' W 074°09'0 0.0
2014-Dec-25 10:32N 40°41' W 074°09'0 0.0
2014-Dec-25 09:32N 40°41' W 074°09'0 0.0
2014-Dec-25 08:32N 40°41' W 074°09'0 0.0
2014-Dec-25 07:32N 40°41' W 074°09'0 0.0
2014-Dec-25 06:32N 40°41' W 074°09'0 0.0
2014-Dec-25 05:32N 40°41' W 074°09'0 0.0
2014-Dec-25 04:32N 40°41' W 074°09'0 0.0
2014-Dec-25 03:32N 40°41' W 074°09'0 0.0
2014-Dec-25 02:32N 40°41' W 074°09'0 0.0
2014-Dec-25 01:32N 40°41' W 074°09'0 0.0
2014-Dec-25 00:32N 40°41' W 074°09'0 0.0
2014-Dec-24 23:26N 40°41' W 074°09'0 0.0
2014-Dec-24 22:32N 40°41' W 074°09'0 0.0
2014-Dec-24 21:32N 40°41' W 074°09'0 0.0
2014-Dec-24 20:32N 40°41' W 074°09'0 0.0
2014-Dec-24 19:32N 40°41' W 074°09'0 0.0
2014-Dec-24 18:32N 40°41' W 074°09'0 0.0
2014-Dec-24 17:32N 40°41' W 074°09'0 0.0
2014-Dec-24 16:26N 40°41' W 074°09'0 0.0
2014-Dec-24 15:32N 40°41' W 074°09'0 0.0
2014-Dec-24 14:32N 40°41' W 074°09'0 0.0
2014-Dec-24 13:32N 40°41' W 074°09'0 0.0
2014-Dec-24 12:26N 40°41' W 074°09'0 0.0
2014-Dec-24 11:32N 40°41' W 074°09'0 0.0
2014-Dec-24 10:32N 40°41' W 074°09'0 0.0
2014-Dec-24 09:33N 40°41' W 074°09'0 0.0
2014-Dec-24 08:34N 40°41' W 074°09'0 0.0
2014-Dec-24 07:34N 40°41' W 074°09'0 0.0
2014-Dec-24 06:33N 40°41' W 074°09'0 0.0
2014-Dec-24 05:34N 40°41' W 074°09'0 0.0
2014-Dec-24 04:33N 40°41' W 074°09'0 0.0
2014-Dec-24 03:34N 40°41' W 074°09'0 0.0
2014-Dec-24 02:34N 40°41' W 074°09'0 0.0
2014-Dec-24 01:33N 40°41' W 074°09'0 0.0
2014-Dec-24 00:34N 40°41' W 074°09'0 0.0
2014-Dec-23 23:34N 40°41' W 074°09'0 0.0
2014-Dec-23 22:33N 40°41' W 074°09'0 0.0
2014-Dec-23 21:33N 40°41' W 074°09'2 2.1
2014-Dec-23 20:33N 40°39' W 074°09'5 5.1
2014-Dec-23 19:34N 40°37' W 074°03'1110.6
2014-Dec-23 18:33N 40°29' W 073°54'49 9.8
2014-Dec-23 13:33N 40°27' W 072°50'9 8.4
2014-Dec-23 12:32N 40°19' W 072°46'3 2.5
2014-Dec-23 11:29N 40°18' W 072°43'3 2.7
2014-Dec-23 10:33N 40°16' W 072°40'2 2.4
2014-Dec-23 09:32N 40°15' W 072°37'2 2.3
2014-Dec-23 08:33N 40°14' W 072°35'2 2.5
2014-Dec-23 07:34N 40°13' W 072°32'2 2.2
2014-Dec-23 06:34N 40°12' W 072°29'2 2.1
2014-Dec-23 05:33N 40°12' W 072°27'9 7.7
2014-Dec-23 04:22N 40°18' W 072°18'1113.0
2014-Dec-23 03:33N 40°23' W 072°05'1313.0
2014-Dec-23 02:34N 40°28' W 071°50'1312.7
2014-Dec-23 01:33N 40°32' W 071°34'1312.8
2014-Dec-23 00:34N 40°32' W 071°17'1812.9
2014-Dec-22 23:12N 40°33' W 070°54'3018.0
2014-Dec-22 21:31N 40°34' W 070°14'  
Track history (hours):
 
Tides and Currents Weather Stations Pressure Air Temp Water Temp Dewpoint Dewpoint Depression Visibility Wind Speed Wind Dir Waves Ship Positions

Suez Canal Bridge

Last reported at 2014-Dec-31 23:16 UTC. Time now 2015-Jan-29 18:22 UTC.
Position N 32°06' W 081°01'.
Warning: this ship's position is 28 days out of date.

Length 284.7 m; beam 40 m.

Type: Cargo ship. MMSI: 353704000.

Date/timePositionNaut miles runAvg speedWind from/ knotsBaromVisibWave heightAir tempDewpointWater temp
2014-Dec-31 23:16N 32°06' W 081°01'5 6.6
2014-Dec-31 22:33N 32°06' W 081°06'3 1.4
2014-Dec-31 20:28N 32°08' W 081°08'0 0.0
2014-Dec-31 16:21N 32°08' W 081°08'0 0.0
2014-Dec-31 13:28N 32°08' W 081°08'0 0.0
2014-Dec-31 04:33N 32°08' W 081°08'0 0.0
2014-Dec-30 22:20N 32°08' W 081°08'3 3.6
2014-Dec-30 21:31N 32°06' W 081°06'  
2014-Dec-28 00:05N 37°32' W 074°27'816.0
2014-Dec-27 23:33N 37°39' W 074°21'5115.6
2014-Dec-27 20:16N 38°27' W 073°60'1216.1
2014-Dec-27 19:32N 38°39' W 073°58'1616.1
2014-Dec-27 18:33N 38°55' W 073°57'1615.6
2014-Dec-27 17:33N 39°10' W 073°55'1614.6
2014-Dec-27 16:29N 39°26' W 073°54'1414.5
2014-Dec-27 15:33N 39°39' W 073°52'1514.6
2014-Dec-27 14:33N 39°54' W 073°51'1413.4
2014-Dec-27 13:32N 40°07' W 073°50'9 8.8
2014-Dec-27 12:34N 40°16' W 073°49'9 8.5
2014-Dec-27 11:34N 40°24' W 073°49'8 7.6
2014-Dec-27 10:33N 40°30' W 073°56'1212.1
2014-Dec-27 09:33N 40°39' W 074°07'3 2.5
2014-Dec-27 08:31N 40°41' W 074°09'0 0.0
2014-Dec-27 07:31N 40°41' W 074°09'0 0.0
2014-Dec-27 06:22N 40°41' W 074°09'0 0.0
2014-Dec-27 05:31N 40°41' W 074°09'0 0.0
2014-Dec-27 04:31N 40°41' W 074°09'0 0.0
2014-Dec-27 03:31N 40°41' W 074°09'0 0.0
2014-Dec-27 02:25N 40°41' W 074°09'0 0.0
2014-Dec-27 01:31N 40°41' W 074°09'0 0.0
2014-Dec-27 00:31N 40°41' W 074°09'0 0.0
2014-Dec-26 23:28N 40°41' W 074°09'0 0.0
2014-Dec-26 22:32N 40°41' W 074°09'0 0.0
2014-Dec-26 21:29N 40°41' W 074°09'0 0.0
2014-Dec-26 20:29N 40°41' W 074°09'0 0.0
2014-Dec-26 19:29N 40°41' W 074°09'0 0.0
2014-Dec-26 18:29N 40°41' W 074°09'0 0.0
2014-Dec-26 17:29N 40°41' W 074°09'0 0.0
2014-Dec-26 16:29N 40°41' W 074°09'0 0.0
2014-Dec-26 15:32N 40°41' W 074°09'0 0.0
2014-Dec-26 14:32N 40°41' W 074°09'0 0.0
2014-Dec-26 13:32N 40°41' W 074°09'0 0.0
2014-Dec-26 12:32N 40°41' W 074°09'0 0.0
2014-Dec-26 11:32N 40°41' W 074°09'0 0.0
2014-Dec-26 10:32N 40°41' W 074°09'0 0.0
2014-Dec-26 09:32N 40°41' W 074°09'0 0.0
2014-Dec-26 08:29N 40°41' W 074°09'0 0.0
2014-Dec-26 07:29N 40°41' W 074°09'0 0.0
2014-Dec-26 06:29N 40°41' W 074°09'0 0.0
2014-Dec-26 05:29N 40°41' W 074°09'0 0.0
2014-Dec-26 04:29N 40°41' W 074°09'0 0.0
2014-Dec-26 03:32N 40°41' W 074°09'0 0.0
2014-Dec-26 02:32N 40°41' W 074°09'0 0.0
2014-Dec-26 01:32N 40°41' W 074°09'0 0.0
2014-Dec-26 00:32N 40°41' W 074°09'0 0.0
2014-Dec-25 23:32N 40°41' W 074°09'0 0.0
2014-Dec-25 22:32N 40°41' W 074°09'0 0.0
2014-Dec-25 21:26N 40°41' W 074°09'0 0.0
2014-Dec-25 20:32N 40°41' W 074°09'0 0.0
2014-Dec-25 19:32N 40°41' W 074°09'0 0.0
2014-Dec-25 18:32N 40°41' W 074°09'0 0.0
2014-Dec-25 17:32N 40°41' W 074°09'0 0.0
2014-Dec-25 16:32N 40°41' W 074°09'0 0.0
2014-Dec-25 15:32N 40°41' W 074°09'0 0.0
2014-Dec-25 14:32N 40°41' W 074°09'0 0.0
2014-Dec-25 13:32N 40°41' W 074°09'0 0.0
2014-Dec-25 12:32N 40°41' W 074°09'0 0.0
2014-Dec-25 11:32N 40°41' W 074°09'0 0.0
2014-Dec-25 10:32N 40°41' W 074°09'0 0.0
2014-Dec-25 09:32N 40°41' W 074°09'0 0.0
2014-Dec-25 08:32N 40°41' W 074°09'0 0.0
2014-Dec-25 07:32N 40°41' W 074°09'0 0.0
2014-Dec-25 06:32N 40°41' W 074°09'0 0.0
2014-Dec-25 05:32N 40°41' W 074°09'0 0.0
2014-Dec-25 04:32N 40°41' W 074°09'0 0.0
2014-Dec-25 03:32N 40°41' W 074°09'0 0.0
2014-Dec-25 02:32N 40°41' W 074°09'0 0.0
2014-Dec-25 01:32N 40°41' W 074°09'0 0.0
2014-Dec-25 00:32N 40°41' W 074°09'0 0.0
2014-Dec-24 23:26N 40°41' W 074°09'0 0.0
2014-Dec-24 22:32N 40°41' W 074°09'0 0.0
2014-Dec-24 21:32N 40°41' W 074°09'0 0.0
2014-Dec-24 20:32N 40°41' W 074°09'0 0.0
2014-Dec-24 19:32N 40°41' W 074°09'0 0.0
2014-Dec-24 18:32N 40°41' W 074°09'0 0.0
2014-Dec-24 17:32N 40°41' W 074°09'0 0.0
2014-Dec-24 16:26N 40°41' W 074°09'0 0.0
2014-Dec-24 15:32N 40°41' W 074°09'0 0.0
2014-Dec-24 14:32N 40°41' W 074°09'0 0.0
2014-Dec-24 13:32N 40°41' W 074°09'0 0.0
2014-Dec-24 12:26N 40°41' W 074°09'0 0.0
2014-Dec-24 11:32N 40°41' W 074°09'0 0.0
2014-Dec-24 10:32N 40°41' W 074°09'0 0.0
2014-Dec-24 09:33N 40°41' W 074°09'0 0.0
2014-Dec-24 08:34N 40°41' W 074°09'0 0.0
2014-Dec-24 07:34N 40°41' W 074°09'0 0.0
2014-Dec-24 06:33N 40°41' W 074°09'0 0.0
2014-Dec-24 05:34N 40°41' W 074°09'0 0.0
2014-Dec-24 04:33N 40°41' W 074°09'0 0.0
2014-Dec-24 03:34N 40°41' W 074°09'0 0.0
2014-Dec-24 02:34N 40°41' W 074°09'0 0.0
2014-Dec-24 01:33N 40°41' W 074°09'0 0.0
2014-Dec-24 00:34N 40°41' W 074°09'0 0.0
2014-Dec-23 23:34N 40°41' W 074°09'0 0.0
2014-Dec-23 22:33N 40°41' W 074°09'0 0.0
2014-Dec-23 21:33N 40°41' W 074°09'2 2.1
2014-Dec-23 20:33N 40°39' W 074°09'5 5.1
2014-Dec-23 19:34N 40°37' W 074°03'1110.6
2014-Dec-23 18:33N 40°29' W 073°54'49 9.8
2014-Dec-23 13:33N 40°27' W 072°50'9 8.4
2014-Dec-23 12:32N 40°19' W 072°46'3 2.5
2014-Dec-23 11:29N 40°18' W 072°43'3 2.7
2014-Dec-23 10:33N 40°16' W 072°40'2 2.4
2014-Dec-23 09:32N 40°15' W 072°37'2 2.3
2014-Dec-23 08:33N 40°14' W 072°35'2 2.5
2014-Dec-23 07:34N 40°13' W 072°32'2 2.2
2014-Dec-23 06:34N 40°12' W 072°29'2 2.1
2014-Dec-23 05:33N 40°12' W 072°27'9 7.7
2014-Dec-23 04:22N 40°18' W 072°18'1113.0
2014-Dec-23 03:33N 40°23' W 072°05'1313.0
2014-Dec-23 02:34N 40°28' W 071°50'1312.7
2014-Dec-23 01:33N 40°32' W 071°34'1312.8
2014-Dec-23 00:34N 40°32' W 071°17'1812.9
2014-Dec-22 23:12N 40°33' W 070°54'3018.0
2014-Dec-22 21:31N 40°34' W 070°14'  

Dump ship's entire track history